Time;durP1;ratioP1;P1;durP2;ratioP2;P2;SDS_P1;SDS_P2;PMS_P1;PMS_P2;Temp;Humidity;BMP_temperature;BMP_pressure;BME280_temperature;BME280_humidity;BME280_pressure;Samples;Min_cycle;Max_cycle;Signal;HPM_P1;HPM_P2
2022/10/15 00:07:16;;;;;;;3.65;1.00;;;;;;;15.10;100.00;99559.84;20488900;28;20149;-74
2022/10/15 00:17:17;;;;;;;2.53;0.95;;;;;;;15.16;100.00;99563.13;20487108;28;20087;-74
2022/10/15 00:27:19;;;;;;;1.30;0.70;;;;;;;15.16;100.00;99557.84;20486364;28;20432;-76
2022/10/15 00:37:21;;;;;;;2.92;0.70;;;;;;;15.19;100.00;99553.28;20502878;28;20419;-76
2022/10/15 00:47:22;;;;;;;3.03;0.90;;;;;;;15.26;100.00;99553.84;20487129;28;20137;-75
2022/10/15 00:57:23;;;;;;;2.22;0.70;;;;;;;15.29;100.00;99559.81;20484738;28;20086;-75
2022/10/15 01:07:25;;;;;;;3.53;0.82;;;;;;;15.31;100.00;99562.38;20498558;28;20082;-74
2022/10/15 01:17:26;;;;;;;1.40;0.50;;;;;;;15.32;100.00;99558.78;20501022;28;20093;-74
2022/10/15 01:27:28;;;;;;;3.15;0.60;;;;;;;15.29;100.00;99558.97;20499782;28;20055;-74
2022/10/15 01:37:29;;;;;;;1.38;0.40;;;;;;;15.28;100.00;99547.56;20497637;29;20051;-74
2022/10/15 01:47:30;;;;;;;0.88;0.30;;;;;;;15.31;100.00;99541.28;20499050;28;20066;-73
2022/10/15 01:57:32;;;;;;;1.63;0.32;;;;;;;15.34;100.00;99541.13;20497633;28;20043;-75
2022/10/15 02:07:33;;;;;;;2.90;0.60;;;;;;;15.37;100.00;99547.09;20498326;28;20142;-74
2022/10/15 02:17:34;;;;;;;2.10;0.85;;;;;;;15.40;100.00;99549.59;20495517;28;20122;-75
2022/10/15 02:27:35;;;;;;;2.20;0.60;;;;;;;15.44;100.00;99545.03;20495518;28;20584;-74
2022/10/15 02:37:37;;;;;;;2.25;0.40;;;;;;;15.45;100.00;99549.38;20494353;29;20412;-74
2022/10/15 02:47:38;;;;;;;2.95;0.68;;;;;;;15.56;100.00;99541.75;20493622;29;20574;-74
2022/10/15 02:57:39;;;;;;;3.08;0.80;;;;;;;15.54;100.00;99548.91;20489218;28;20058;-74
2022/10/15 03:07:41;;;;;;;3.80;0.70;;;;;;;15.60;100.00;99561.78;20490390;28;20082;-74
2022/10/15 03:17:42;;;;;;;2.95;0.50;;;;;;;15.66;100.00;99552.75;20490919;28;20048;-73
2022/10/15 03:27:43;;;;;;;2.53;0.60;;;;;;;15.64;100.00;99560.75;20489703;28;20164;-73
2022/10/15 03:37:45;;;;;;;2.40;0.77;;;;;;;15.68;100.00;99560.59;20488841;29;20677;-74
2022/10/15 03:47:46;;;;;;;1.95;1.00;;;;;;;15.70;100.00;99574.56;20488518;29;20079;-74
2022/10/15 03:57:47;;;;;;;5.18;0.85;;;;;;;15.65;100.00;99583.56;20488573;29;20452;-74
2022/10/15 04:07:49;;;;;;;2.40;0.90;;;;;;;15.61;100.00;99586.38;20487584;29;20134;-73
2022/10/15 04:17:50;;;;;;;2.15;0.90;;;;;;;15.63;100.00;99601.25;20486876;29;20478;-73
2022/10/15 04:27:52;;;;;;;2.83;0.80;;;;;;;15.59;100.00;99618.13;20490669;28;20465;-74
2022/10/15 04:37:53;;;;;;;6.60;2.42;;;;;;;15.68;100.00;99623.94;20484986;28;20147;-73
2022/10/15 04:47:54;;;;;;;5.75;1.33;;;;;;;15.59;100.00;99636.59;20485220;28;20133;-73
2022/10/15 04:57:56;;;;;;;2.42;0.90;;;;;;;15.68;100.00;99635.34;20484800;29;20079;-73
2022/10/15 05:07:57;;;;;;;2.83;0.93;;;;;;;15.60;100.00;99648.00;20487646;28;20579;-75
2022/10/15 05:17:58;;;;;;;1.92;1.08;;;;;;;15.60;100.00;99663.84;20483789;28;20121;-74
2022/10/15 05:28:00;;;;;;;3.80;1.10;;;;;;;15.54;100.00;99659.72;20487992;28;20075;-74
2022/10/15 05:38:01;;;;;;;5.30;1.50;;;;;;;15.53;100.00;99673.84;20483475;28;20055;-74
2022/10/15 05:48:02;;;;;;;5.88;1.75;;;;;;;15.45;100.00;99697.09;20486880;28;20074;-74
2022/10/15 05:58:04;;;;;;;7.22;1.70;;;;;;;15.48;100.00;99712.78;20497216;29;20134;-77
2022/10/15 06:08:05;;;;;;;5.70;1.63;;;;;;;15.39;100.00;99718.50;20494801;29;20146;-75
2022/10/15 06:18:06;;;;;;;4.70;1.50;;;;;;;15.26;100.00;99718.19;20494800;29;20106;-75
2022/10/15 06:28:08;;;;;;;5.45;1.98;;;;;;;15.38;100.00;99719.44;20497712;28;20098;-76
2022/10/15 06:38:09;;;;;;;5.07;1.73;;;;;;;15.30;100.00;99740.03;20493284;28;20428;-76
2022/10/15 06:48:11;;;;;;;5.13;1.90;;;;;;;15.32;100.00;99761.88;20492402;28;20079;-75
2022/10/15 06:58:12;;;;;;;6.25;2.50;;;;;;;15.42;100.00;99768.47;20491639;28;20055;-75
2022/10/15 07:08:14;;;;;;;5.13;1.83;;;;;;;15.39;100.00;99781.81;20490639;29;20420;-74
2022/10/15 07:18:19;;;;;;;4.18;1.67;;;;;;;15.44;100.00;99779.81;20491216;29;20054;-75
2022/10/15 07:28:20;;;;;;;4.15;1.70;;;;;;;15.56;100.00;99791.56;20493785;28;20047;-74
2022/10/15 07:38:22;;;;;;;3.97;1.58;;;;;;;15.73;100.00;99786.41;20488617;28;20054;-74
2022/10/15 07:48:24;;;;;;;7.07;2.28;;;;;;;15.85;100.00;99795.53;20488280;28;20640;-73
2022/10/15 07:58:25;;;;;;;5.35;2.03;;;;;;;15.86;100.00;99797.28;20485090;28;20177;-73
2022/10/15 08:08:26;;;;;;;3.63;1.30;;;;;;;15.96;100.00;99809.09;20484802;28;20047;-73
2022/10/15 08:18:27;;;;;;;6.78;2.38;;;;;;;16.02;100.00;99818.50;20483275;28;20079;-72
2022/10/15 08:28:29;;;;;;;3.20;1.30;;;;;;;16.02;100.00;99816.72;20483181;28;20070;-72
2022/10/15 08:38:30;;;;;;;5.57;1.70;;;;;;;16.05;100.00;99823.63;20482112;29;20054;-71
2022/10/15 08:48:31;;;;;;;4.43;1.30;;;;;;;16.10;100.00;99838.34;20480873;29;20492;-70
2022/10/15 08:58:33;;;;;;;2.58;1.20;;;;;;;16.21;100.00;99829.06;20479668;28;20145;-71
2022/10/15 09:08:40;;;;;;;6.20;1.40;;;;;;;16.11;100.00;99853.25;20480247;29;20090;-73
2022/10/15 09:18:42;;;;;;;3.92;1.67;;;;;;;16.29;100.00;99848.03;20483647;29;20133;-75
2022/10/15 09:28:43;;;;;;;6.43;3.38;;;;;;;16.36;100.00;99849.44;20500828;28;20073;-74
2022/10/15 09:38:45;;;;;;;4.35;1.40;;;;;;;17.25;100.00;99845.00;20497168;29;20460;-73
2022/10/15 09:48:46;;;;;;;7.20;2.15;;;;;;;17.50;100.00;99855.19;20496821;28;20142;-72
2022/10/15 09:58:47;;;;;;;4.20;1.42;;;;;;;17.61;100.00;99858.97;20496823;28;20059;-69
2022/10/15 10:08:49;;;;;;;4.63;1.25;;;;;;;17.99;100.00;99855.22;20494447;28;20114;-72
2022/10/15 10:18:50;;;;;;;2.47;0.85;;;;;;;18.26;100.00;99863.44;20495282;28;20480;-72
2022/10/15 10:28:51;;;;;;;2.05;0.90;;;;;;;18.13;100.00;99858.81;20494821;28;20138;-72
2022/10/15 10:39:00;;;;;;;2.10;0.60;;;;;;;18.64;100.00;99848.84;20491973;28;20092;-72
2022/10/15 10:49:02;;;;;;;3.47;0.70;;;;;;;18.50;100.00;99856.75;20494007;29;20051;-72
2022/10/15 10:59:03;;;;;;;4.25;1.10;;;;;;;18.53;100.00;99859.19;20491814;29;20524;-70
2022/10/15 11:09:04;;;;;;;4.30;0.80;;;;;;;17.96;100.00;99858.88;20490203;28;20059;-72
2022/10/15 11:19:06;;;;;;;5.10;1.05;;;;;;;17.97;100.00;99859.75;20489213;28;20933;-72
2022/10/15 11:29:20;;;;;;;2.23;0.90;;;;;;;18.05;100.00;99858.38;20489708;28;20051;-72
2022/10/15 11:39:21;;;;;;;4.00;0.90;;;;;;;18.19;100.00;99839.91;20487491;28;20085;-72
2022/10/15 11:49:22;;;;;;;4.57;1.60;;;;;;;18.14;100.00;99852.56;20486540;28;20459;-73
2022/10/15 11:59:24;;;;;;;7.00;1.35;;;;;;;18.28;100.00;99849.16;20487348;28;20051;-72
2022/10/15 12:09:25;;;;;;;8.07;1.23;;;;;;;18.05;100.00;99854.88;20485797;28;20082;-72
2022/10/15 12:19:27;;;;;;;3.90;1.20;;;;;;;17.82;100.00;99845.53;20485929;28;20142;-70
2022/10/15 12:29:28;;;;;;;4.30;1.30;;;;;;;17.41;100.00;99841.50;20483172;28;20138;-69
2022/10/15 12:39:29;;;;;;;7.05;1.45;;;;;;;17.29;100.00;99842.13;20484435;29;20078;-70
2022/10/15 12:49:50;;;;;;;6.10;2.17;;;;;;;17.35;100.00;99835.69;20483966;29;20051;-69
2022/10/15 12:59:52;;;;;;;4.95;1.10;;;;;;;17.32;100.00;99835.84;20492272;28;20047;-71
2022/10/15 13:09:53;;;;;;;5.15;1.90;;;;;;;17.60;100.00;99820.19;20498973;29;20051;-70
2022/10/15 13:19:54;;;;;;;7.10;2.20;;;;;;;17.44;100.00;99817.53;20497907;28;20047;-72
2022/10/15 13:29:56;;;;;;;4.63;1.60;;;;;;;17.26;100.00;99812.34;20502011;28;20078;-72
2022/10/15 13:39:57;;;;;;;3.47;1.45;;;;;;;17.05;100.00;99824.88;20495576;28;20091;-72
2022/10/15 13:50:03;;;;;;;6.13;1.60;;;;;;;16.87;100.00;99830.19;20494086;29;20135;-73
2022/10/15 14:00:04;;;;;;;5.60;1.60;;;;;;;16.90;100.00;99813.31;20495825;29;20055;-73
2022/10/15 14:10:06;;;;;;;5.07;1.70;;;;;;;16.86;100.00;99814.38;20493951;28;20051;-72
2022/10/15 14:20:07;;;;;;;4.43;1.95;;;;;;;16.78;100.00;99821.88;20495211;28;20657;-72
2022/10/15 14:30:27;;;;;;;5.28;1.70;;;;;;;16.61;100.00;99828.81;20493773;28;20047;-72
2022/10/15 14:40:28;;;;;;;4.75;1.70;;;;;;;16.67;100.00;99823.25;20494504;29;20043;-72
2022/10/15 14:50:29;;;;;;;4.32;2.13;;;;;;;16.73;100.00;99823.91;20490285;28;20055;-73
2022/10/15 15:00:32;;;;;;;4.00;1.77;;;;;;;16.75;100.00;99819.38;20489478;28;20070;-73
2022/10/15 15:10:33;;;;;;;5.10;2.13;;;;;;;16.77;100.00;99823.66;20456512;28;20121;-74
2022/10/15 15:20:34;;;;;;;4.65;1.90;;;;;;;16.68;100.00;99822.31;20469830;28;20175;-73
2022/10/15 15:30:35;;;;;;;6.35;2.85;;;;;;;16.58;100.00;99818.41;20486416;28;20106;-72
2022/10/15 15:40:37;;;;;;;5.22;2.78;;;;;;;16.56;100.00;99812.31;20486199;29;20138;-73
2022/10/15 15:50:38;;;;;;;5.60;2.83;;;;;;;16.52;100.00;99833.69;20489952;28;20592;-72
2022/10/15 16:00:40;;;;;;;5.97;3.05;;;;;;;16.48;100.00;99830.38;20485138;29;20141;-72
2022/10/15 16:10:41;;;;;;;7.53;2.28;;;;;;;16.43;100.00;99840.28;20480358;28;20086;-72
2022/10/15 16:20:43;;;;;;;5.82;2.83;;;;;;;16.41;100.00;99853.56;20480572;28;20102;-73
2022/10/15 16:30:48;;;;;;;7.97;4.78;;;;;;;16.38;100.00;99858.16;20507612;23;20126;-73
2022/10/15 16:40:50;;;;;;;8.70;3.88;;;;;;;16.33;100.00;99870.72;20482678;28;20085;-74
2022/10/15 16:50:51;;;;;;;8.63;3.88;;;;;;;16.30;100.00;99868.25;20481503;29;20055;-71
2022/10/15 17:00:53;;;;;;;5.47;2.17;;;;;;;16.28;100.00;99885.94;20479275;29;20130;-70
2022/10/15 17:10:54;;;;;;;5.25;1.85;;;;;;;16.27;100.00;99894.81;20479894;29;20210;-70
2022/10/15 17:20:55;;;;;;;9.75;4.90;;;;;;;16.24;100.00;99918.72;20479870;28;20052;-70
2022/10/15 17:30:56;;;;;;;6.10;3.42;;;;;;;16.20;100.00;99939.16;20479256;28;20106;-70
2022/10/15 17:40:58;;;;;;;6.45;3.70;;;;;;;16.23;100.00;99933.69;20480091;28;20083;-69
2022/10/15 17:50:59;;;;;;;6.38;3.05;;;;;;;16.17;100.00;99940.13;20492407;29;20086;-69
2022/10/15 18:01:00;;;;;;;5.25;3.53;;;;;;;16.13;100.00;99938.56;20495059;29;20142;-69
2022/10/15 18:11:02;;;;;;;6.75;2.60;;;;;;;16.12;100.00;99943.91;20491167;29;20047;-69
2022/10/15 18:21:03;;;;;;;6.50;2.97;;;;;;;16.12;100.00;99946.56;20491832;29;20641;-72
2022/10/15 18:31:06;;;;;;;7.93;3.10;;;;;;;16.11;100.00;99961.56;20495104;28;20490;-69
2022/10/15 18:41:07;;;;;;;5.85;3.33;;;;;;;16.10;100.00;99959.84;20490777;29;20505;-70
2022/10/15 18:51:09;;;;;;;6.40;3.10;;;;;;;16.14;100.00;99974.63;20489133;28;20145;-69
2022/10/15 19:01:10;;;;;;;10.52;4.82;;;;;;;16.16;100.00;99980.69;20486147;28;20135;-69
2022/10/15 19:11:12;;;;;;;11.30;5.43;;;;;;;16.18;100.00;99977.97;20487058;28;20059;-69
2022/10/15 19:21:13;;;;;;;9.13;5.50;;;;;;;16.15;100.00;99978.97;20486992;29;20075;-69
2022/10/15 19:31:14;;;;;;;9.40;5.03;;;;;;;16.13;100.00;99982.59;20489697;28;20198;-69
2022/10/15 19:41:16;;;;;;;5.53;2.30;;;;;;;16.13;100.00;99991.38;20484911;28;20058;-69
2022/10/15 19:51:17;;;;;;;6.90;3.00;;;;;;;16.19;100.00;100007.88;20484266;29;20464;-69
2022/10/15 20:01:19;;;;;;;4.50;1.60;;;;;;;16.19;100.00;100000.81;20465868;29;20922;-69
2022/10/15 20:11:20;;;;;;;5.70;1.70;;;;;;;16.21;100.00;100019.25;20497211;28;20083;-71
2022/10/15 20:21:21;;;;;;;7.07;1.70;;;;;;;16.10;100.00;100025.88;20495971;29;20062;-69
2022/10/15 20:31:27;;;;;;;4.65;1.80;;;;;;;16.07;100.00;100020.72;20528593;28;20075;-69
2022/10/15 20:41:28;;;;;;;3.85;1.48;;;;;;;16.03;100.00;100036.75;20570934;28;20121;-68
2022/10/15 20:51:30;;;;;;;5.68;1.95;;;;;;;16.04;100.00;100034.03;20571893;28;20058;-68
2022/10/15 21:01:31;;;;;;;5.78;1.65;;;;;;;15.98;100.00;100047.53;20572061;28;20129;-70
2022/10/15 21:11:33;;;;;;;7.03;2.38;;;;;;;15.98;100.00;100050.16;20471375;28;20062;-70
2022/10/15 21:21:34;;;;;;;4.93;2.33;;;;;;;15.99;100.00;100056.31;20418668;29;20110;-70
2022/10/15 21:31:35;;;;;;;5.35;2.60;;;;;;;16.01;100.00;100065.03;20498860;28;96392;-70
2022/10/15 21:41:37;;;;;;;5.55;2.15;;;;;;;15.96;100.00;100090.78;20587642;28;20051;-70
2022/10/15 21:51:38;;;;;;;7.93;1.77;;;;;;;16.07;100.00;100085.88;20587384;28;20074;-69
2022/10/15 22:01:39;;;;;;;6.72;1.98;;;;;;;15.99;100.00;100088.00;20587349;28;20051;-69
2022/10/15 22:11:41;;;;;;;3.13;1.30;;;;;;;15.99;100.00;100099.41;20585902;28;20511;-74
2022/10/15 22:21:42;;;;;;;8.98;1.77;;;;;;;16.03;100.00;100079.88;20585379;28;20089;-68
2022/10/15 22:31:43;;;;;;;3.28;1.52;;;;;;;15.96;100.00;100086.34;20546834;28;20067;-69
2022/10/15 22:41:45;;;;;;;4.97;2.08;;;;;;;15.84;100.00;100086.88;20506205;29;20130;-70
2022/10/15 22:51:46;;;;;;;7.93;2.25;;;;;;;15.71;100.00;100073.31;20503426;29;20102;-70
2022/10/15 23:01:47;;;;;;;3.92;1.70;;;;;;;15.58;100.00;100086.16;20502269;28;20078;-70
2022/10/15 23:11:49;;;;;;;8.63;2.30;;;;;;;15.53;100.00;100096.03;20501846;28;20147;-69
2022/10/15 23:21:50;;;;;;;6.15;2.42;;;;;;;15.52;100.00;100096.97;20501781;28;20468;-68
2022/10/15 23:31:51;;;;;;;5.03;2.13;;;;;;;15.41;100.00;100107.06;20538931;28;20050;-80
2022/10/15 23:41:53;;;;;;;3.65;2.08;;;;;;;15.34;100.00;100111.75;20579982;28;20102;-71
2022/10/15 23:51:54;;;;;;;4.55;2.08;;;;;;;15.32;100.00;100123.28;20579075;28;20079;-71
